createdAt,value
2018-04-12T00:00:05.734Z,9.10
2018-04-12T00:01:07.870Z,9.10
2018-04-12T00:02:10.980Z,9.10
2018-04-12T00:03:05.691Z,9.10
2018-04-12T00:04:05.351Z,9.10
2018-04-12T00:05:06.190Z,9.10
2018-04-12T00:06:10.621Z,9.10
2018-04-12T00:07:06.042Z,9.10
2018-04-12T00:08:05.963Z,9.10
2018-04-12T00:09:05.561Z,9.10
2018-04-12T00:10:07.857Z,9.10
2018-04-12T00:11:07.831Z,9.10
2018-04-12T00:12:07.731Z,9.10
2018-04-12T00:13:06.850Z,9.10
2018-04-12T00:14:08.046Z,9.10
2018-04-12T00:15:05.305Z,9.00
2018-04-12T00:16:05.110Z,9.10
2018-04-12T00:17:05.780Z,9.10
2018-04-12T00:18:05.460Z,9.10
2018-04-12T00:19:06.127Z,9.10
2018-04-12T00:20:08.678Z,9.10
2018-04-12T00:21:05.390Z,9.10
2018-04-12T00:22:05.262Z,9.10
2018-04-12T00:23:08.428Z,9.10
2018-04-12T00:24:09.586Z,9.10
2018-04-12T00:25:08.126Z,9.10
2018-04-12T00:26:05.694Z,9.10
2018-04-12T00:27:05.255Z,9.10
2018-04-12T00:28:10.304Z,9.10
2018-04-12T00:29:08.096Z,9.10
2018-04-12T00:30:05.611Z,9.10
2018-04-12T00:31:05.455Z,9.10
2018-04-12T00:32:13.232Z,9.10
2018-04-12T00:33:05.787Z,9.10
2018-04-12T00:34:05.555Z,9.10
2018-04-12T00:35:05.337Z,9.10
2018-04-12T00:36:07.953Z,9.10
2018-04-12T00:37:08.064Z,9.20
2018-04-12T00:38:05.576Z,9.10
2018-04-12T00:39:05.187Z,9.20
2018-04-12T00:40:08.421Z,9.20
2018-04-12T00:41:08.557Z,9.20
2018-04-12T00:42:06.017Z,9.10
2018-04-12T00:43:08.274Z,9.20
2018-04-12T00:44:05.859Z,9.10
2018-04-12T00:45:05.541Z,9.10
2018-04-12T00:46:05.149Z,9.20
2018-04-12T00:47:11.754Z,9.10
2018-04-12T00:48:05.252Z,9.10
2018-04-12T00:49:10.982Z,9.20
2018-04-12T00:50:08.000Z,9.10
2018-04-12T00:51:05.612Z,9.10
2018-04-12T00:52:07.884Z,9.20
2018-04-12T00:53:07.989Z,9.20
2018-04-12T00:54:05.601Z,9.10
2018-04-12T00:55:05.231Z,9.20
2018-04-12T00:56:06.132Z,9.10
2018-04-12T00:57:05.652Z,9.20
2018-04-12T00:58:05.432Z,9.20
2018-04-12T00:59:06.156Z,9.20
2018-04-12T01:00:05.773Z,9.20
2018-04-12T01:01:08.023Z,9.20
2018-04-12T01:02:08.101Z,9.20
2018-04-12T01:03:08.377Z,9.20
2018-04-12T01:04:08.380Z,9.20
2018-04-12T01:05:10.923Z,9.20
2018-04-12T01:06:08.159Z,9.30
2018-04-12T01:07:05.762Z,9.30
2018-04-12T01:08:05.962Z,9.30
2018-04-12T01:09:05.602Z,9.30
2018-04-12T01:10:08.011Z,9.30
2018-04-12T01:11:05.515Z,9.30
2018-04-12T01:12:05.146Z,9.30
2018-04-12T01:13:08.436Z,9.30
2018-04-12T01:14:06.053Z,9.30
2018-04-12T01:15:05.930Z,9.30
2018-04-12T01:16:05.580Z,9.30
2018-04-12T01:17:05.341Z,9.40
2018-04-12T01:18:06.138Z,9.40
2018-04-12T01:19:05.335Z,9.40
2018-04-12T01:20:06.059Z,9.40
2018-04-12T01:21:05.802Z,9.40
2018-04-12T01:22:05.557Z,9.40
2018-04-12T01:23:05.302Z,9.40
2018-04-12T01:24:05.903Z,9.40
2018-04-12T01:25:10.594Z,9.40
2018-04-12T01:26:08.742Z,9.50
2018-04-12T01:27:07.786Z,9.50
2018-04-12T01:28:07.913Z,9.50
2018-04-12T01:29:06.044Z,9.50
2018-04-12T01:30:08.209Z,9.50
2018-04-12T01:31:08.292Z,9.50
2018-04-12T01:32:05.913Z,9.50
2018-04-12T01:33:05.974Z,9.50
2018-04-12T01:34:05.662Z,9.40
2018-04-12T01:35:05.952Z,9.40
2018-04-12T01:36:05.494Z,9.40
2018-04-12T01:37:05.386Z,9.30
2018-04-12T01:38:06.029Z,9.30
2018-04-12T01:39:05.556Z,9.20
2018-04-12T01:40:08.860Z,9.10
2018-04-12T01:41:05.298Z,9.10
2018-04-12T01:42:08.476Z,9.10
2018-04-12T01:43:06.042Z,9.10
2018-04-12T01:44:05.620Z,9.10
2018-04-12T01:45:07.717Z,9.00
2018-04-12T01:46:07.807Z,8.90
2018-04-12T01:47:05.919Z,8.90
2018-04-12T01:48:08.164Z,8.80
2018-04-12T01:49:10.769Z,8.80
2018-04-12T01:50:07.802Z,8.70
2018-04-12T01:51:07.842Z,8.70
2018-04-12T01:52:07.995Z,8.60
2018-04-12T01:53:07.966Z,8.60
2018-04-12T01:54:05.341Z,8.60
2018-04-12T01:55:06.109Z,8.60
2018-04-12T01:56:08.252Z,8.50
2018-04-12T01:57:05.694Z,8.50
2018-04-12T01:58:05.281Z,8.40
2018-04-12T01:59:08.381Z,8.30
2018-04-12T02:00:05.185Z,8.30
2018-04-12T02:01:06.044Z,8.30
2018-04-12T02:02:05.758Z,8.30
2018-04-12T02:03:05.569Z,8.20
2018-04-12T02:04:10.335Z,8.20
2018-04-12T02:05:05.816Z,8.20
2018-04-12T02:06:05.456Z,8.20
2018-04-12T02:07:06.074Z,8.20
2018-04-12T02:08:05.799Z,8.10
2018-04-12T02:09:08.644Z,8.10
2018-04-12T02:10:08.663Z,8.10
2018-04-12T02:11:08.375Z,8.10
2018-04-12T02:12:05.816Z,8.00
2018-04-12T02:13:05.503Z,8.10
2018-04-12T02:14:06.241Z,8.10
2018-04-12T02:15:08.379Z,8.00
2018-04-12T02:16:05.764Z,8.00
2018-04-12T02:17:05.326Z,8.00
2018-04-12T02:18:06.009Z,8.00
2018-04-12T02:19:07.989Z,8.00
2018-04-12T02:20:05.390Z,8.00
2018-04-12T02:21:08.754Z,8.00
2018-04-12T02:22:05.303Z,8.00
2018-04-12T02:23:05.257Z,8.00
2018-04-12T02:24:07.713Z,7.90
2018-04-12T02:25:05.109Z,7.90
2018-04-12T02:26:10.662Z,7.90
2018-04-12T02:27:11.304Z,7.80
2018-04-12T02:28:06.132Z,7.80
2018-04-12T02:29:05.669Z,7.80
2018-04-12T02:30:05.349Z,7.80
2018-04-12T02:31:05.964Z,7.80
2018-04-12T02:32:05.737Z,7.80
2018-04-12T02:33:07.964Z,7.70
2018-04-12T02:34:08.666Z,7.70
2018-04-12T02:35:07.733Z,7.60
2018-04-12T02:36:05.541Z,7.70
2018-04-12T02:37:15.225Z,7.60
2018-04-12T02:38:05.743Z,7.60
2018-04-12T02:39:05.535Z,7.60
2018-04-12T02:40:06.103Z,7.60
2018-04-12T02:41:05.929Z,7.50
2018-04-12T02:42:11.082Z,7.50
2018-04-12T02:43:08.096Z,7.50
2018-04-12T02:44:05.528Z,7.50
2018-04-12T02:45:06.272Z,7.50
2018-04-12T02:46:05.702Z,7.50
2018-04-12T02:47:05.869Z,7.50
2018-04-12T02:48:08.347Z,7.50
2018-04-12T02:49:05.090Z,7.50
2018-04-12T02:50:05.360Z,7.50
2018-04-12T02:51:06.546Z,7.50
2018-04-12T02:52:10.339Z,7.40
2018-04-12T02:53:05.789Z,7.40
2018-04-12T02:54:05.850Z,7.40
2018-04-12T02:55:05.408Z,7.40
2018-04-12T02:56:07.859Z,7.40
2018-04-12T02:57:05.418Z,7.40
2018-04-12T02:58:06.239Z,7.40
2018-04-12T02:59:08.450Z,7.40
2018-04-12T03:00:06.092Z,7.40
2018-04-12T03:01:05.986Z,7.40
2018-04-12T03:02:05.659Z,7.40
2018-04-12T03:03:07.661Z,7.40
2018-04-12T03:04:07.719Z,7.40
2018-04-12T03:05:07.760Z,7.40
2018-04-12T03:06:05.266Z,7.40
2018-04-12T03:07:05.960Z,7.40
2018-04-12T03:08:08.199Z,7.40
2018-04-12T03:09:05.667Z,7.40
2018-04-12T03:10:05.387Z,7.40
2018-04-12T03:11:05.489Z,7.40
2018-04-12T03:12:06.191Z,7.40
2018-04-12T03:13:05.850Z,7.40
2018-04-12T03:14:05.918Z,7.40
2018-04-12T03:15:05.484Z,7.40
2018-04-12T03:16:05.272Z,7.40
2018-04-12T03:17:08.431Z,7.40
2018-04-12T03:18:06.326Z,7.40
2018-04-12T03:19:08.179Z,7.40
2018-04-12T03:20:07.828Z,7.40
2018-04-12T03:21:07.821Z,7.40
2018-04-12T03:22:05.375Z,7.40
2018-04-12T03:23:05.646Z,7.40
2018-04-12T03:24:05.499Z,7.40
2018-04-12T03:25:05.261Z,7.40
2018-04-12T03:26:08.443Z,7.30
2018-04-12T03:27:06.156Z,7.30
2018-04-12T03:28:12.758Z,7.30
2018-04-12T03:29:10.139Z,7.30
2018-04-12T03:30:08.188Z,7.30
2018-04-12T03:31:05.806Z,7.20
2018-04-12T03:32:05.518Z,7.20
2018-04-12T03:33:10.309Z,7.20
2018-04-12T03:34:05.819Z,7.20
2018-04-12T03:35:05.377Z,7.20
2018-04-12T03:36:05.234Z,7.20
2018-04-12T03:37:06.916Z,7.20
2018-04-12T03:38:05.829Z,7.20
2018-04-12T03:39:05.665Z,7.20
2018-04-12T03:40:05.878Z,7.20
2018-04-12T03:41:05.365Z,7.20
2018-04-12T03:42:10.989Z,7.20
2018-04-12T03:43:08.155Z,7.10
2018-04-12T03:44:05.636Z,7.10
2018-04-12T03:45:10.417Z,7.10
2018-04-12T03:46:05.855Z,7.10
2018-04-12T03:47:08.010Z,7.10
2018-04-12T03:48:05.875Z,7.10
2018-04-12T03:49:05.437Z,7.10
2018-04-12T03:50:10.885Z,7.10
2018-04-12T03:51:05.405Z,7.10
2018-04-12T03:52:08.612Z,7.10
2018-04-12T03:53:06.140Z,7.10
2018-04-12T03:54:05.965Z,7.10
2018-04-12T03:55:05.610Z,7.00
2018-04-12T03:56:07.757Z,7.00
2018-04-12T03:57:10.250Z,7.00
2018-04-12T03:58:05.781Z,7.00
2018-04-12T03:59:05.506Z,7.00
2018-04-12T04:00:06.016Z,7.00
2018-04-12T04:01:06.036Z,7.00
2018-04-12T04:02:05.592Z,7.00
2018-04-12T04:03:05.993Z,7.00
2018-04-12T04:04:05.773Z,7.00
2018-04-12T04:05:08.286Z,6.90
2018-04-12T04:06:05.947Z,7.00
2018-04-12T04:07:08.280Z,7.00
2018-04-12T04:08:05.941Z,6.90
2018-04-12T04:09:08.002Z,7.00
2018-04-12T04:10:05.523Z,7.00
2018-04-12T04:11:05.349Z,7.00
2018-04-12T04:12:05.545Z,6.90
2018-04-12T04:13:08.630Z,6.90
2018-04-12T04:14:06.235Z,6.90
2018-04-12T04:15:06.075Z,6.90
2018-04-12T04:16:10.881Z,7.00
2018-04-12T04:17:08.136Z,7.00
2018-04-12T04:18:05.757Z,7.00
2018-04-12T04:19:13.324Z,7.00
2018-04-12T04:20:08.427Z,7.00
2018-04-12T04:21:05.823Z,7.00
2018-04-12T04:22:07.964Z,7.00
2018-04-12T04:23:05.462Z,7.00
2018-04-12T04:24:05.432Z,7.10
2018-04-12T04:25:14.879Z,7.10
2018-04-12T04:26:05.418Z,7.10
2018-04-12T04:27:08.534Z,7.10
2018-04-12T04:28:05.956Z,7.10
2018-04-12T04:29:08.281Z,7.10
2018-04-12T04:30:05.710Z,7.10
2018-04-12T04:31:05.411Z,7.10
2018-04-12T04:32:06.229Z,7.10
2018-04-12T04:33:06.080Z,7.20
2018-04-12T04:34:11.181Z,7.20
2018-04-12T04:35:07.765Z,7.20
2018-04-12T04:36:10.391Z,7.20
2018-04-12T04:37:06.515Z,7.20
2018-04-12T04:38:07.795Z,7.20
2018-04-12T04:39:07.967Z,7.20
2018-04-12T04:40:05.645Z,7.20
2018-04-12T04:41:07.956Z,7.20
2018-04-12T04:42:06.157Z,7.20
2018-04-12T04:43:05.693Z,7.30
2018-04-12T04:44:05.857Z,7.30
2018-04-12T04:45:06.356Z,7.30
2018-04-12T04:46:05.982Z,7.30
2018-04-12T04:47:05.764Z,7.30
2018-04-12T04:48:05.835Z,7.30
2018-04-12T04:49:07.949Z,7.30
2018-04-12T04:50:10.587Z,7.40
2018-04-12T04:51:06.005Z,7.40
2018-04-12T04:52:08.300Z,7.40
2018-04-12T04:53:05.719Z,7.40
2018-04-12T04:54:05.317Z,7.40
2018-04-12T04:55:06.011Z,7.40
2018-04-12T04:56:10.662Z,7.50
2018-04-12T04:57:08.545Z,7.50
2018-04-12T04:58:05.853Z,7.40
2018-04-12T04:59:08.201Z,7.50
2018-04-12T05:00:05.659Z,7.40
2018-04-12T05:01:08.333Z,7.50
2018-04-12T05:02:06.159Z,7.50
2018-04-12T05:03:10.820Z,7.50
2018-04-12T05:04:08.086Z,7.50
2018-04-12T05:05:06.078Z,7.50
2018-04-12T05:06:08.268Z,7.50
2018-04-12T05:07:08.220Z,7.50
2018-04-12T05:08:05.727Z,7.50
2018-04-12T05:09:05.329Z,7.50
2018-04-12T05:10:06.285Z,7.40
2018-04-12T05:11:08.528Z,7.40
2018-04-12T05:12:06.041Z,7.50
2018-04-12T05:13:06.073Z,7.40
2018-04-12T05:14:08.708Z,7.40
2018-04-12T05:15:10.224Z,7.40
2018-04-12T05:16:05.143Z,7.50
2018-04-12T05:17:05.813Z,7.50
2018-04-12T05:18:08.201Z,7.50
2018-04-12T05:19:05.779Z,7.50
2018-04-12T05:20:07.914Z,7.50
2018-04-12T05:21:05.450Z,7.50
2018-04-12T05:22:08.472Z,7.50
2018-04-12T05:23:06.127Z,7.50
2018-04-12T05:24:05.876Z,7.50
2018-04-12T05:25:05.454Z,7.50
2018-04-12T05:26:06.082Z,7.50
2018-04-12T05:27:05.781Z,7.60
2018-04-12T05:28:05.378Z,7.60
2018-04-12T05:29:05.186Z,7.60
2018-04-12T05:30:08.572Z,7.70
2018-04-12T05:31:08.752Z,7.60
2018-04-12T05:32:05.574Z,7.60
2018-04-12T05:33:08.111Z,7.70
2018-04-12T05:34:05.919Z,7.70
2018-04-12T05:35:11.721Z,7.80
2018-04-12T05:36:11.724Z,7.90
2018-04-12T05:37:05.280Z,7.90
2018-04-12T05:38:05.348Z,7.90
2018-04-12T05:39:08.687Z,8.10
2018-04-12T05:40:07.650Z,8.10
2018-04-12T05:41:05.102Z,8.10
2018-04-12T05:42:05.273Z,8.20
2018-04-12T05:43:06.114Z,8.20
2018-04-12T05:44:05.801Z,8.30
2018-04-12T05:45:05.653Z,8.40
2018-04-12T05:46:05.232Z,8.40
2018-04-12T05:47:05.916Z,8.50
2018-04-12T05:48:08.104Z,8.60
2018-04-12T05:49:08.163Z,8.60
2018-04-12T05:50:05.367Z,8.60
2018-04-12T05:51:08.526Z,8.70
2018-04-12T05:52:10.785Z,8.70
2018-04-12T05:53:05.240Z,8.60
2018-04-12T05:54:06.035Z,8.70
2018-04-12T05:55:06.088Z,8.70
2018-04-12T05:56:05.957Z,8.70
2018-04-12T05:57:05.723Z,8.70
2018-04-12T05:58:08.447Z,8.80
2018-04-12T05:59:08.471Z,8.80
2018-04-12T06:00:05.919Z,8.80
2018-04-12T06:01:08.306Z,8.80
2018-04-12T06:02:08.345Z,8.80
2018-04-12T06:03:08.219Z,8.80
2018-04-12T06:04:05.543Z,8.80
2018-04-12T06:05:05.523Z,8.80
2018-04-12T06:06:09.708Z,8.80
2018-04-12T06:07:08.831Z,8.80
2018-04-12T06:08:05.774Z,8.80
2018-04-12T06:09:05.437Z,8.80
2018-04-12T06:10:05.360Z,8.80
2018-04-12T06:11:05.934Z,8.80
2018-04-12T06:12:05.678Z,8.80
2018-04-12T06:13:05.794Z,8.80
2018-04-12T06:14:05.460Z,8.80
2018-04-12T06:15:06.107Z,8.80
2018-04-12T06:16:05.723Z,8.80
2018-04-12T06:17:07.840Z,8.80
2018-04-12T06:18:10.417Z,8.80
2018-04-12T06:19:08.537Z,8.90
2018-04-12T06:20:05.954Z,8.80
2018-04-12T06:21:08.088Z,8.90
2018-04-12T06:22:05.947Z,9.00
2018-04-12T06:23:08.129Z,9.00
2018-04-12T06:24:05.669Z,9.00
2018-04-12T06:25:08.211Z,9.10
2018-04-12T06:26:08.277Z,9.10
2018-04-12T06:27:05.615Z,9.20
2018-04-12T06:28:07.823Z,9.30
2018-04-12T06:29:07.784Z,9.50
2018-04-12T06:30:10.254Z,9.50
2018-04-12T06:31:05.725Z,9.60
2018-04-12T06:32:05.622Z,9.70
2018-04-12T06:33:05.756Z,9.80
2018-04-12T06:34:07.880Z,9.90
2018-04-12T06:35:06.116Z,9.90
2018-04-12T06:36:11.169Z,10.00
2018-04-12T06:37:05.626Z,10.00
2018-04-12T06:38:05.584Z,10.00
2018-04-12T06:39:07.802Z,10.10
2018-04-12T06:40:05.508Z,10.00
2018-04-12T06:41:06.063Z,10.10
2018-04-12T06:42:10.744Z,10.10
2018-04-12T06:43:10.184Z,10.00
2018-04-12T06:44:05.672Z,10.10
2018-04-12T06:45:06.373Z,10.10
2018-04-12T06:46:06.247Z,10.10
2018-04-12T06:47:05.880Z,10.20
2018-04-12T06:48:05.522Z,10.20
2018-04-12T06:49:05.150Z,10.20
2018-04-12T06:50:05.762Z,10.20
2018-04-12T06:51:08.454Z,10.20
2018-04-12T06:52:06.028Z,10.20
2018-04-12T06:53:10.702Z,10.30
2018-04-12T06:54:05.254Z,10.20
2018-04-12T06:55:10.982Z,10.30
2018-04-12T06:56:05.440Z,10.30
2018-04-12T06:57:08.736Z,10.40
2018-04-12T06:58:05.593Z,10.40
2018-04-12T06:59:05.483Z,10.50
2018-04-12T07:00:05.547Z,10.40
2018-04-12T07:01:05.492Z,10.40
2018-04-12T07:02:06.214Z,10.50
2018-04-12T07:03:06.023Z,10.50
2018-04-12T07:04:07.869Z,10.50
2018-04-12T07:05:10.483Z,10.50
2018-04-12T07:06:06.073Z,10.50
2018-04-12T07:07:06.071Z,10.60
2018-04-12T07:08:05.963Z,10.60
2018-04-12T07:09:05.576Z,10.60
2018-04-12T07:10:11.492Z,10.60
2018-04-12T07:11:11.031Z,10.70
2018-04-12T07:12:05.798Z,10.60
2018-04-12T07:13:13.119Z,10.60
2018-04-12T07:14:08.115Z,10.50
2018-04-12T07:15:05.662Z,10.60
2018-04-12T07:16:05.248Z,10.50
2018-04-12T07:17:06.421Z,10.50
2018-04-12T07:18:06.480Z,10.40
2018-04-12T07:19:12.782Z,10.40
2018-04-12T07:20:05.675Z,10.40
2018-04-12T07:21:05.771Z,10.40
2018-04-12T07:22:05.336Z,10.30
2018-04-12T07:23:08.163Z,10.30
2018-04-12T07:24:05.733Z,10.30
2018-04-12T07:25:05.771Z,10.20
2018-04-12T07:26:06.830Z,10.20
2018-04-12T07:27:07.979Z,10.20
2018-04-12T07:28:05.349Z,10.10
2018-04-12T07:29:08.450Z,10.10
2018-04-12T07:30:08.347Z,10.10
2018-04-12T07:31:08.087Z,10.10
2018-04-12T07:32:08.140Z,10.10
2018-04-12T07:33:06.134Z,10.00
2018-04-12T07:34:05.856Z,10.10
2018-04-12T07:35:06.025Z,10.10
2018-04-12T07:36:05.304Z,10.00
2018-04-12T07:37:08.169Z,10.00
2018-04-12T07:38:09.000Z,10.10
2018-04-12T07:39:05.878Z,10.00
2018-04-12T07:40:08.086Z,10.10
2018-04-12T07:41:08.096Z,10.00
2018-04-12T07:42:05.680Z,10.10
2018-04-12T07:43:10.423Z,10.10
2018-04-12T07:44:08.569Z,10.10
2018-04-12T07:45:06.336Z,10.10
2018-04-12T07:46:05.808Z,10.10
2018-04-12T07:47:08.140Z,10.20
2018-04-12T07:48:05.594Z,10.20
2018-04-12T07:49:06.314Z,10.20
2018-04-12T07:50:06.168Z,10.20
2018-04-12T07:51:08.292Z,10.20
2018-04-12T07:52:05.774Z,10.20
2018-04-12T07:53:08.010Z,10.30
2018-04-12T07:54:05.665Z,10.30
2018-04-12T07:55:05.565Z,10.40
2018-04-12T07:56:06.278Z,10.60
2018-04-12T07:57:05.988Z,10.70
2018-04-12T07:58:05.837Z,10.90
2018-04-12T07:59:08.344Z,11.20
2018-04-12T08:00:05.964Z,11.20
2018-04-12T08:01:05.712Z,11.30
2018-04-12T08:02:05.587Z,11.40
2018-04-12T08:03:05.681Z,11.50
2018-04-12T08:04:08.561Z,11.80
2018-04-12T08:05:06.549Z,11.80
2018-04-12T08:06:16.466Z,12.00
2018-04-12T08:07:05.973Z,12.00
2018-04-12T08:08:05.622Z,12.10
2018-04-12T08:09:08.054Z,12.30
2018-04-12T08:10:05.647Z,12.30
2018-04-12T08:11:08.219Z,12.50
2018-04-12T08:12:10.813Z,12.60
2018-04-12T08:13:07.911Z,12.70
2018-04-12T08:14:07.963Z,12.90
2018-04-12T08:15:10.457Z,13.00
2018-04-12T08:16:05.973Z,13.00
2018-04-12T08:17:08.323Z,13.10
2018-04-12T08:18:05.940Z,13.10
2018-04-12T08:19:06.063Z,13.30
2018-04-12T08:20:06.091Z,13.30
2018-04-12T08:21:05.330Z,13.40
2018-04-12T08:22:05.937Z,13.50
2018-04-12T08:23:07.722Z,13.60
2018-04-12T08:24:10.308Z,13.70
2018-04-12T08:25:08.258Z,13.80
2018-04-12T08:26:05.913Z,13.80
2018-04-12T08:27:08.429Z,13.90
2018-04-12T08:28:10.928Z,13.90
2018-04-12T08:29:05.408Z,14.00
2018-04-12T08:30:06.314Z,14.10
2018-04-12T08:31:06.046Z,14.10
2018-04-12T08:32:08.320Z,14.20
2018-04-12T08:33:08.792Z,14.30
2018-04-12T08:34:10.348Z,14.40
2018-04-12T08:35:05.849Z,14.30
2018-04-12T08:36:05.508Z,14.40
2018-04-12T08:37:05.289Z,14.50
2018-04-12T08:38:06.048Z,14.50
2018-04-12T08:39:05.804Z,14.50
2018-04-12T08:40:05.848Z,14.60
2018-04-12T08:41:05.450Z,14.60
2018-04-12T08:42:05.357Z,14.60
2018-04-12T08:43:10.993Z,14.70
2018-04-12T08:44:05.907Z,14.80
2018-04-12T08:45:05.855Z,14.80
2018-04-12T08:46:08.031Z,14.90
2018-04-12T08:47:06.017Z,14.90
2018-04-12T08:48:10.880Z,15.00
2018-04-12T08:49:05.492Z,15.00
2018-04-12T08:50:07.949Z,15.10
2018-04-12T08:51:07.923Z,15.20
2018-04-12T08:52:06.365Z,15.20
2018-04-12T08:53:10.834Z,15.30
2018-04-12T08:54:05.415Z,15.30
2018-04-12T08:55:08.753Z,15.40
2018-04-12T08:56:05.276Z,15.40
2018-04-12T08:57:08.526Z,15.40
2018-04-12T08:58:07.806Z,15.40
2018-04-12T08:59:07.988Z,15.50
2018-04-12T09:00:07.913Z,15.50
2018-04-12T09:01:08.541Z,15.50
2018-04-12T09:02:08.607Z,15.60
2018-04-12T09:03:06.240Z,15.60
2018-04-12T09:04:08.425Z,15.60
2018-04-12T09:05:08.100Z,15.70
2018-04-12T09:06:05.721Z,15.70
2018-04-12T09:07:05.779Z,15.80
2018-04-12T09:08:05.293Z,15.80
2018-04-12T09:09:08.459Z,16.00
2018-04-12T09:10:06.109Z,16.00
2018-04-12T09:11:05.544Z,16.00
2018-04-12T09:12:05.112Z,16.00
2018-04-12T09:13:06.009Z,16.10
2018-04-12T09:14:06.108Z,16.00
2018-04-12T09:15:05.752Z,16.00
2018-04-12T09:16:05.517Z,16.00
2018-04-12T09:17:16.387Z,16.00
2018-04-12T09:18:05.891Z,16.00
2018-04-12T09:19:05.958Z,16.10
2018-04-12T09:20:10.637Z,16.10
2018-04-12T09:21:15.979Z,16.20
2018-04-12T09:22:05.811Z,16.20
2018-04-12T09:23:05.427Z,16.30
2018-04-12T09:24:05.538Z,16.30
2018-04-12T09:25:08.932Z,16.30
2018-04-12T09:26:08.179Z,16.30
2018-04-12T09:27:05.911Z,16.30
2018-04-12T09:28:08.081Z,16.40
2018-04-12T09:29:08.037Z,16.40
2018-04-12T09:30:07.965Z,16.50
2018-04-12T09:31:10.756Z,16.40
2018-04-12T09:32:08.379Z,16.50
2018-04-12T09:33:05.960Z,16.60
2018-04-12T09:34:05.621Z,16.60
2018-04-12T09:35:05.291Z,16.70
2018-04-12T09:36:06.393Z,16.70
2018-04-12T09:37:11.074Z,16.80
2018-04-12T09:38:06.001Z,16.80
2018-04-12T09:39:08.125Z,16.90
2018-04-12T09:40:10.620Z,17.00
2018-04-12T09:41:06.093Z,17.00
2018-04-12T09:42:06.244Z,17.00
2018-04-12T09:43:08.470Z,17.10
2018-04-12T09:44:10.965Z,17.20
2018-04-12T09:45:08.064Z,17.20
2018-04-12T09:46:05.616Z,17.20
2018-04-12T09:47:05.221Z,17.30
2018-04-12T09:48:05.961Z,17.30
2018-04-12T09:49:05.579Z,17.30
2018-04-12T09:50:08.213Z,17.40
2018-04-12T09:51:05.595Z,17.40
2018-04-12T09:52:05.225Z,17.40
2018-04-12T09:53:08.668Z,17.50
2018-04-12T09:54:07.772Z,17.60
2018-04-12T09:55:05.445Z,17.50
2018-04-12T09:56:11.265Z,17.60
2018-04-12T09:57:05.784Z,17.70
2018-04-12T09:58:06.240Z,17.70
2018-04-12T09:59:05.911Z,17.70
2018-04-12T10:00:08.277Z,17.80
2018-04-12T10:01:08.843Z,17.90
2018-04-12T10:02:08.023Z,17.90
2018-04-12T10:03:05.469Z,17.90
2018-04-12T10:04:05.787Z,18.00
2018-04-12T10:05:05.693Z,18.10
2018-04-12T10:06:05.426Z,18.10
2018-04-12T10:07:06.704Z,18.10
2018-04-12T10:08:05.785Z,18.10
2018-04-12T10:09:08.255Z,18.20
2018-04-12T10:10:05.958Z,18.30
2018-04-12T10:11:05.688Z,18.30
2018-04-12T10:12:05.200Z,18.40
2018-04-12T10:13:06.057Z,18.40
2018-04-12T10:14:05.686Z,18.50
2018-04-12T10:15:08.048Z,18.60
2018-04-12T10:16:05.681Z,18.60
2018-04-12T10:17:10.475Z,18.60
2018-04-12T10:18:08.426Z,18.60
2018-04-12T10:19:05.957Z,18.70
2018-04-12T10:20:06.049Z,18.70
2018-04-12T10:21:05.751Z,18.70
2018-04-12T10:22:05.490Z,18.80
2018-04-12T10:23:05.496Z,18.80
2018-04-12T10:24:05.402Z,18.80
2018-04-12T10:25:05.967Z,18.80
2018-04-12T10:26:08.207Z,18.80
2018-04-12T10:27:05.825Z,18.80
2018-04-12T10:28:08.179Z,18.80
2018-04-12T10:29:05.395Z,18.80
2018-04-12T10:30:06.231Z,18.80
2018-04-12T10:31:11.054Z,18.90
2018-04-12T10:32:05.380Z,18.90
2018-04-12T10:33:08.453Z,19.00
2018-04-12T10:34:16.052Z,19.00
2018-04-12T10:35:16.341Z,19.10
2018-04-12T10:36:05.678Z,19.00
2018-04-12T10:37:05.591Z,19.20
2018-04-12T10:38:05.901Z,19.20
2018-04-12T10:39:05.770Z,19.20
2018-04-12T10:40:05.430Z,19.20
2018-04-12T10:41:05.418Z,19.20
2018-04-12T10:42:06.168Z,19.30
2018-04-12T10:43:05.733Z,19.30
2018-04-12T10:44:05.995Z,19.30
2018-04-12T10:45:05.986Z,19.30
2018-04-12T10:46:05.995Z,19.40
2018-04-12T10:47:05.831Z,19.40
2018-04-12T10:48:06.021Z,19.40
2018-04-12T10:49:05.422Z,19.50
2018-04-12T10:50:05.605Z,19.50
2018-04-12T10:51:08.062Z,19.60
2018-04-12T10:52:05.565Z,19.60
2018-04-12T10:53:08.721Z,19.70
2018-04-12T10:54:07.825Z,19.80
2018-04-12T10:55:07.970Z,19.80
2018-04-12T10:56:08.137Z,19.90
2018-04-12T10:57:05.726Z,19.90
2018-04-12T10:58:07.982Z,20.00
2018-04-12T10:59:05.730Z,19.90
2018-04-12T11:00:08.205Z,20.00
2018-04-12T11:01:05.394Z,20.00
2018-04-12T11:02:05.598Z,20.00
2018-04-12T11:03:05.439Z,20.10
2018-04-12T11:04:06.133Z,20.20
2018-04-12T11:05:08.782Z,20.30
2018-04-12T11:06:07.973Z,20.30
2018-04-12T11:07:05.382Z,20.30
2018-04-12T11:08:07.795Z,20.40
2018-04-12T11:09:05.319Z,20.30
2018-04-12T11:10:07.916Z,20.30
2018-04-12T11:11:05.582Z,20.30
2018-04-12T11:12:05.450Z,20.30
2018-04-12T11:13:08.513Z,20.30
2018-04-12T11:14:10.943Z,20.30
2018-04-12T11:15:05.278Z,20.30
2018-04-12T11:16:07.897Z,20.40
2018-04-12T11:17:06.348Z,20.40
2018-04-12T11:18:05.384Z,20.40
2018-04-12T11:19:06.213Z,20.40
2018-04-12T11:20:06.013Z,20.40
2018-04-12T11:21:05.833Z,20.50
2018-04-12T11:22:07.713Z,20.60
2018-04-12T11:23:09.082Z,20.60
2018-04-12T11:24:09.175Z,20.70
2018-04-12T11:25:05.861Z,20.60
2018-04-12T11:26:08.877Z,20.70
2018-04-12T11:27:08.328Z,20.70
2018-04-12T11:28:12.062Z,20.70
2018-04-12T11:29:08.435Z,20.60
2018-04-12T11:30:05.226Z,20.60
2018-04-12T11:31:05.900Z,20.60
2018-04-12T11:32:13.390Z,20.60
2018-04-12T11:33:05.925Z,20.60
2018-04-12T11:34:05.712Z,20.60
2018-04-12T11:35:05.594Z,20.50
2018-04-12T11:36:08.685Z,20.50
2018-04-12T11:37:10.299Z,20.50
2018-04-12T11:38:05.944Z,20.50
2018-04-12T11:39:05.911Z,20.50
2018-04-12T11:40:05.549Z,20.50
2018-04-12T11:41:05.182Z,20.50
2018-04-12T11:42:06.276Z,20.50
2018-04-12T11:43:06.015Z,20.50
2018-04-12T11:44:05.715Z,20.40
2018-04-12T11:45:07.937Z,20.50
2018-04-12T11:46:05.606Z,20.50
2018-04-12T11:47:05.258Z,20.50
2018-04-12T11:48:08.487Z,20.40
2018-04-12T11:49:06.215Z,20.40
2018-04-12T11:50:08.416Z,20.50
2018-04-12T11:51:05.866Z,20.50
2018-04-12T11:52:05.406Z,20.50
2018-04-12T11:53:06.151Z,20.50
2018-04-12T11:54:05.988Z,20.50
2018-04-12T11:55:05.622Z,20.50
2018-04-12T11:56:11.365Z,20.60
2018-04-12T11:57:05.864Z,20.60
2018-04-12T11:58:05.961Z,20.70
2018-04-12T11:59:13.518Z,20.80
2018-04-12T12:00:08.673Z,20.90
2018-04-12T12:01:10.444Z,20.90
2018-04-12T12:02:07.104Z,20.90
2018-04-12T12:03:05.643Z,21.00
2018-04-12T12:04:05.602Z,21.10
2018-04-12T12:05:05.145Z,21.10
2018-04-12T12:06:05.896Z,21.20
2018-04-12T12:07:05.623Z,21.20
2018-04-12T12:08:05.308Z,21.20
2018-04-12T12:09:08.936Z,21.30
2018-04-12T12:10:05.602Z,21.30
2018-04-12T12:11:07.814Z,21.30
2018-04-12T12:12:08.035Z,21.30
2018-04-12T12:13:08.599Z,21.20
2018-04-12T12:14:06.115Z,21.30
2018-04-12T12:15:05.847Z,21.30
2018-04-12T12:16:08.346Z,21.20
2018-04-12T12:17:08.618Z,21.30
2018-04-12T12:18:06.284Z,21.20
2018-04-12T12:19:10.817Z,21.20
2018-04-12T12:20:10.315Z,21.30
2018-04-12T12:21:05.977Z,21.30
2018-04-12T12:22:08.159Z,21.40
2018-04-12T12:23:05.783Z,21.40
2018-04-12T12:24:10.558Z,21.40
2018-04-12T12:25:08.686Z,21.50
2018-04-12T12:26:07.727Z,21.50
2018-04-12T12:27:05.370Z,21.50
2018-04-12T12:28:08.660Z,21.50
2018-04-12T12:29:10.348Z,21.50
2018-04-12T12:30:05.867Z,21.50
2018-04-12T12:31:08.053Z,21.40
2018-04-12T12:32:05.576Z,21.40
2018-04-12T12:33:10.404Z,21.60
2018-04-12T12:34:08.335Z,21.60
2018-04-12T12:35:05.440Z,21.60
2018-04-12T12:36:08.618Z,21.70
2018-04-12T12:37:06.356Z,21.70
2018-04-12T12:38:06.068Z,21.80
2018-04-12T12:39:05.824Z,21.80
2018-04-12T12:40:05.630Z,21.90
2018-04-12T12:41:05.425Z,21.90
2018-04-12T12:42:08.674Z,22.10
2018-04-12T12:43:08.704Z,22.10
2018-04-12T12:44:06.135Z,22.00
2018-04-12T12:45:08.475Z,22.20
2018-04-12T12:46:08.650Z,22.20
2018-04-12T12:47:07.773Z,22.20
2018-04-12T12:48:07.839Z,22.20
2018-04-12T12:49:05.407Z,22.30
2018-04-12T12:50:06.231Z,22.30
2018-04-12T12:51:08.406Z,22.30
2018-04-12T12:52:05.824Z,22.30
2018-04-12T12:53:08.360Z,22.30
2018-04-12T12:54:05.246Z,22.30
2018-04-12T12:55:05.356Z,22.30
2018-04-12T12:56:05.457Z,22.30
2018-04-12T12:57:06.091Z,22.30
2018-04-12T12:58:05.857Z,22.20
2018-04-12T12:59:08.048Z,22.10
2018-04-12T13:00:05.539Z,22.10
2018-04-12T13:01:10.219Z,22.10
2018-04-12T13:02:08.361Z,22.10
2018-04-12T13:03:08.441Z,22.10
2018-04-12T13:04:05.699Z,22.10
2018-04-12T13:05:05.836Z,22.10